Gulfport, MS (39501)

8:40 PM CDT on September 23, 2014 (GMT -0500)
Greenbriar | Change Station
CLOSE
Current Station
Personal Weather Station
Location: Gulfport, MS
Elevation: 20 ft
Nearby Weather Stations

Elev 20 ft 30.40 °N, 89.04 °W | Updated 11 minutes ago

Clear
Clear
71.5 °F
Feels Like 73 °F
N
0.0
Wind Variable Wind from East

Today
High -- | Low -- °F
--% Chance of Precip.
Yesterday
High -- | Low -- °F
Precip. -- in
6:45 AM 6:51 PM
Waning Crescent, 0% visible
Pressure 30.04 in
Visibility 10.0 miles
Clouds Clear
Heat Index 73 °F
Dew Point 63 °F
Humidity 75%
Rainfall 0.00 in
Snow Depth Not available.
UV 0 out of 12
Pollen 9.90 out of 12
Ozone Good
PM2.5 Good
Flu Activity Not available.
METAR KGPT 240053Z 06003KT 10SM CLR 25/14 A3005 RMK AO2 SLP173 T02500144

More Conditions Fewer Conditions

Pressure 30.04 in
Visibility 10.0 miles
Clouds Clear
Heat Index 73 °F
Dew Point 63 °F
Humidity 75%
Rainfall 0.00 in
Snow Depth Not available.
UV 0 out of 12
Pollen 9.90 out of 12
Ozone Good
PM2.5 Good
Flu Activity Not available.
METAR KGPT 240053Z 06003KT 10SM CLR 25/14 A3005 RMK AO2 SLP173 T02500144

More Conditions Fewer Conditions

10-Day Weather Forecast

Almanac

Astronomy

Sep. 23, 2014 Rise Set
Actual Time 6:45 AM CDT 6:51 PM CDT
Civil Twilight 6:21 AM CDT 7:15 PM CDT
Nautical Twilight 5:53 AM CDT 7:43 PM CDT
Astronomical Twilight 5:25 AM CDT 8:11 PM CDT
Moon 6:10 AM CDT (9/23) 6:31 PM CDT (9/23)
Length of Visible Light 12h 54m
Length of Day
12h 06m
Tomorrow will be 1m 49s shorter.
Waning Crescent, 0% of the Moon is Illuminated
Today
Waning Crescent
Sep 24
New
Oct 1
First Quarter
Oct 8
Full
Oct 15
Last Quarter

Today's Extremes

State Highs State Lows

Community

WunderPhotos

Upload Photos

1,755,844 photos uploaded!

Nearby

Air Quality

  Air Quality AQ Index Pollutant
Yesterday Good
PM2.5
Yesterday Good
OZONE
Current Good
PM2.5
Current Good
OZONE
Tuesday Good
OZONE
Tuesday Good
PM2.5
Wednesday Good
OZONE
Wednesday Good
PM2.5
Thursday Good
OZONE
Thursday Good
PM2.5
Friday Good
OZONE
Friday Good
PM2.5

Snow Depth

Station Depth Elevation
No new snow has been reported.

Earthquake Activity

City Distance Mag. Time & Date
No recent earthquake activity has been reported nearby.
Minimum magnitude displayed is 2.5.

Coastal Water Temperatures

Place Temperature
No Stations Reporting

Nearby Weather Stations